sensor_id;sensor_type;location;lat;lon;timestamp;temperature;humidity
2012;DHT22;1009;51.436;6.972;2024-01-30T00:00:19;10.10;99.90
2012;DHT22;1009;51.436;6.972;2024-01-30T00:02:46;10.20;99.90
2012;DHT22;1009;51.436;6.972;2024-01-30T00:05:13;10.10;99.90
2012;DHT22;1009;51.436;6.972;2024-01-30T00:07:41;10.10;99.90
2012;DHT22;1009;51.436;6.972;2024-01-30T00:10:08;10.10;99.90
2012;DHT22;1009;51.436;6.972;2024-01-30T00:12:35;10.10;99.90
2012;DHT22;1009;51.436;6.972;2024-01-30T00:15:02;10.10;99.90
2012;DHT22;1009;51.436;6.972;2024-01-30T00:17:30;10.10;99.90
2012;DHT22;1009;51.436;6.972;2024-01-30T00:19:57;10.10;99.90
2012;DHT22;1009;51.436;6.972;2024-01-30T00:22:23;10.10;99.90
2012;DHT22;1009;51.436;6.972;2024-01-30T00:24:51;10.10;99.90
2012;DHT22;1009;51.436;6.972;2024-01-30T00:27:18;10.10;99.90
2012;DHT22;1009;51.436;6.972;2024-01-30T00:29:45;10.10;99.90
2012;DHT22;1009;51.436;6.972;2024-01-30T00:32:12;10.10;99.90
2012;DHT22;1009;51.436;6.972;2024-01-30T00:34:38;10.10;99.90
2012;DHT22;1009;51.436;6.972;2024-01-30T00:37:05;10.20;99.90
2012;DHT22;1009;51.436;6.972;2024-01-30T00:39:32;10.10;99.90
2012;DHT22;1009;51.436;6.972;2024-01-30T00:42:00;10.20;99.90
2012;DHT22;1009;51.436;6.972;2024-01-30T00:44:27;10.10;99.90
2012;DHT22;1009;51.436;6.972;2024-01-30T00:46:53;10.10;99.90
2012;DHT22;1009;51.436;6.972;2024-01-30T00:49:20;10.20;99.90
2012;DHT22;1009;51.436;6.972;2024-01-30T00:51:48;10.20;99.90
2012;DHT22;1009;51.436;6.972;2024-01-30T00:54:14;10.10;99.90
2012;DHT22;1009;51.436;6.972;2024-01-30T00:56:41;10.10;99.90
2012;DHT22;1009;51.436;6.972;2024-01-30T00:59:11;10.10;99.90
2012;DHT22;1009;51.436;6.972;2024-01-30T01:01:37;10.20;99.90
2012;DHT22;1009;51.436;6.972;2024-01-30T01:04:04;10.20;99.90
2012;DHT22;1009;51.436;6.972;2024-01-30T01:06:31;10.20;99.90
2012;DHT22;1009;51.436;6.972;2024-01-30T01:08:58;10.20;99.90
2012;DHT22;1009;51.436;6.972;2024-01-30T01:11:24;10.20;99.90
2012;DHT22;1009;51.436;6.972;2024-01-30T01:13:51;10.20;99.90
2012;DHT22;1009;51.436;6.972;2024-01-30T01:16:19;10.20;99.90
2012;DHT22;1009;51.436;6.972;2024-01-30T01:18:46;10.20;99.90
2012;DHT22;1009;51.436;6.972;2024-01-30T01:21:13;10.20;99.90
2012;DHT22;1009;51.436;6.972;2024-01-30T01:23:40;10.20;99.90
2012;DHT22;1009;51.436;6.972;2024-01-30T01:26:07;10.20;99.90
2012;DHT22;1009;51.436;6.972;2024-01-30T01:28:35;10.20;99.90
2012;DHT22;1009;51.436;6.972;2024-01-30T01:31:02;10.20;99.90
2012;DHT22;1009;51.436;6.972;2024-01-30T01:33:32;10.10;99.90
2012;DHT22;1009;51.436;6.972;2024-01-30T01:35:59;10.10;99.90
2012;DHT22;1009;51.436;6.972;2024-01-30T01:38:27;10.10;99.90
2012;DHT22;1009;51.436;6.972;2024-01-30T01:40:54;10.10;99.90
2012;DHT22;1009;51.436;6.972;2024-01-30T01:43:21;10.20;99.90
2012;DHT22;1009;51.436;6.972;2024-01-30T01:45:48;10.10;99.90
2012;DHT22;1009;51.436;6.972;2024-01-30T01:48:15;10.10;99.90
2012;DHT22;1009;51.436;6.972;2024-01-30T01:50:43;10.10;99.90
2012;DHT22;1009;51.436;6.972;2024-01-30T01:53:10;10.10;99.90
2012;DHT22;1009;51.436;6.972;2024-01-30T01:55:38;10.10;99.90
2012;DHT22;1009;51.436;6.972;2024-01-30T01:58:05;10.10;99.90
2012;DHT22;1009;51.436;6.972;2024-01-30T02:00:32;10.10;99.90
2012;DHT22;1009;51.436;6.972;2024-01-30T02:02:58;10.10;99.90
2012;DHT22;1009;51.436;6.972;2024-01-30T02:05:26;10.10;99.90
2012;DHT22;1009;51.436;6.972;2024-01-30T02:07:54;10.10;99.90
2012;DHT22;1009;51.436;6.972;2024-01-30T02:10:21;10.10;99.90
2012;DHT22;1009;51.436;6.972;2024-01-30T02:12:48;10.10;99.90
2012;DHT22;1009;51.436;6.972;2024-01-30T02:15:15;10.10;99.90
2012;DHT22;1009;51.436;6.972;2024-01-30T02:17:42;10.10;99.90
2012;DHT22;1009;51.436;6.972;2024-01-30T02:20:10;10.10;99.90
2012;DHT22;1009;51.436;6.972;2024-01-30T02:22:38;10.10;99.90
2012;DHT22;1009;51.436;6.972;2024-01-30T02:25:06;10.10;99.90
2012;DHT22;1009;51.436;6.972;2024-01-30T02:27:32;10.00;99.90
2012;DHT22;1009;51.436;6.972;2024-01-30T02:29:59;10.10;99.90
2012;DHT22;1009;51.436;6.972;2024-01-30T02:32:26;10.10;99.90
2012;DHT22;1009;51.436;6.972;2024-01-30T02:34:53;10.10;99.90
2012;DHT22;1009;51.436;6.972;2024-01-30T02:37:19;10.00;99.90
2012;DHT22;1009;51.436;6.972;2024-01-30T02:39:47;10.00;99.90
2012;DHT22;1009;51.436;6.972;2024-01-30T02:42:14;10.00;99.90
2012;DHT22;1009;51.436;6.972;2024-01-30T02:44:41;10.10;99.90
2012;DHT22;1009;51.436;6.972;2024-01-30T02:47:08;10.00;99.90
2012;DHT22;1009;51.436;6.972;2024-01-30T02:49:34;10.00;99.90
2012;DHT22;1009;51.436;6.972;2024-01-30T02:52:01;10.00;99.90
2012;DHT22;1009;51.436;6.972;2024-01-30T02:54:28;10.00;99.90
2012;DHT22;1009;51.436;6.972;2024-01-30T02:56:57;10.00;99.90
2012;DHT22;1009;51.436;6.972;2024-01-30T02:59:24;10.00;99.90
2012;DHT22;1009;51.436;6.972;2024-01-30T03:01:50;10.00;99.90
2012;DHT22;1009;51.436;6.972;2024-01-30T03:04:17;10.00;99.90
2012;DHT22;1009;51.436;6.972;2024-01-30T03:06:45;10.00;99.90
2012;DHT22;1009;51.436;6.972;2024-01-30T03:09:13;10.00;99.90
2012;DHT22;1009;51.436;6.972;2024-01-30T03:11:39;10.00;99.90
2012;DHT22;1009;51.436;6.972;2024-01-30T03:14:08;10.00;99.90
2012;DHT22;1009;51.436;6.972;2024-01-30T03:16:36;10.00;99.90
2012;DHT22;1009;51.436;6.972;2024-01-30T03:19:04;10.00;99.90
2012;DHT22;1009;51.436;6.972;2024-01-30T03:21:30;10.00;99.90
2012;DHT22;1009;51.436;6.972;2024-01-30T03:23:57;10.00;99.90
2012;DHT22;1009;51.436;6.972;2024-01-30T03:26:25;9.90;99.90
2012;DHT22;1009;51.436;6.972;2024-01-30T03:28:51;9.90;99.90
2012;DHT22;1009;51.436;6.972;2024-01-30T03:31:19;10.00;99.90
2012;DHT22;1009;51.436;6.972;2024-01-30T03:33:46;10.00;99.90
2012;DHT22;1009;51.436;6.972;2024-01-30T03:36:14;9.90;99.90
2012;DHT22;1009;51.436;6.972;2024-01-30T03:38:41;9.90;99.90
2012;DHT22;1009;51.436;6.972;2024-01-30T03:41:08;9.90;99.90
2012;DHT22;1009;51.436;6.972;2024-01-30T03:43:35;9.90;99.90
2012;DHT22;1009;51.436;6.972;2024-01-30T03:46:02;10.00;99.90
2012;DHT22;1009;51.436;6.972;2024-01-30T03:48:31;10.00;99.90
2012;DHT22;1009;51.436;6.972;2024-01-30T03:50:58;10.00;99.90
2012;DHT22;1009;51.436;6.972;2024-01-30T03:53:25;10.00;99.90
2012;DHT22;1009;51.436;6.972;2024-01-30T03:55:52;10.00;99.90
2012;DHT22;1009;51.436;6.972;2024-01-30T03:58:18;10.00;99.90
2012;DHT22;1009;51.436;6.972;2024-01-30T04:00:45;10.00;99.90
2012;DHT22;1009;51.436;6.972;2024-01-30T04:03:12;10.00;99.90
2012;DHT22;1009;51.436;6.972;2024-01-30T04:05:40;10.00;99.90
2012;DHT22;1009;51.436;6.972;2024-01-30T04:08:08;10.00;99.90
2012;DHT22;1009;51.436;6.972;2024-01-30T04:10:35;10.00;99.90
2012;DHT22;1009;51.436;6.972;2024-01-30T04:13:01;10.00;99.90
2012;DHT22;1009;51.436;6.972;2024-01-30T04:15:28;10.00;99.90
2012;DHT22;1009;51.436;6.972;2024-01-30T04:17:57;10.00;99.90
2012;DHT22;1009;51.436;6.972;2024-01-30T04:20:24;10.00;99.90
2012;DHT22;1009;51.436;6.972;2024-01-30T04:22:52;10.00;99.90
2012;DHT22;1009;51.436;6.972;2024-01-30T04:25:19;10.00;99.90
2012;DHT22;1009;51.436;6.972;2024-01-30T04:27:45;10.00;99.90
2012;DHT22;1009;51.436;6.972;2024-01-30T04:30:12;10.00;99.90
2012;DHT22;1009;51.436;6.972;2024-01-30T04:32:39;10.00;99.90
2012;DHT22;1009;51.436;6.972;2024-01-30T04:35:06;10.00;99.90
2012;DHT22;1009;51.436;6.972;2024-01-30T04:37:33;10.00;99.90
2012;DHT22;1009;51.436;6.972;2024-01-30T04:40:01;10.00;99.90
2012;DHT22;1009;51.436;6.972;2024-01-30T04:42:28;10.00;99.90
2012;DHT22;1009;51.436;6.972;2024-01-30T04:44:55;10.00;99.90
2012;DHT22;1009;51.436;6.972;2024-01-30T04:47:22;10.00;99.90
2012;DHT22;1009;51.436;6.972;2024-01-30T04:49:48;10.00;99.90
2012;DHT22;1009;51.436;6.972;2024-01-30T04:52:16;10.00;99.90
2012;DHT22;1009;51.436;6.972;2024-01-30T04:54:42;10.00;99.90
2012;DHT22;1009;51.436;6.972;2024-01-30T04:57:10;10.00;99.90
2012;DHT22;1009;51.436;6.972;2024-01-30T04:59:38;10.00;99.90
2012;DHT22;1009;51.436;6.972;2024-01-30T05:02:05;10.00;99.90
2012;DHT22;1009;51.436;6.972;2024-01-30T05:04:32;10.00;99.90
2012;DHT22;1009;51.436;6.972;2024-01-30T05:06:59;10.00;99.90
2012;DHT22;1009;51.436;6.972;2024-01-30T05:09:25;10.00;99.90
2012;DHT22;1009;51.436;6.972;2024-01-30T05:11:52;10.00;99.90
2012;DHT22;1009;51.436;6.972;2024-01-30T05:14:20;10.00;99.90
2012;DHT22;1009;51.436;6.972;2024-01-30T05:16:47;10.00;99.90
2012;DHT22;1009;51.436;6.972;2024-01-30T05:19:14;9.90;99.90
2012;DHT22;1009;51.436;6.972;2024-01-30T05:21:41;9.90;99.90
2012;DHT22;1009;51.436;6.972;2024-01-30T05:24:08;9.90;99.90
2012;DHT22;1009;51.436;6.972;2024-01-30T05:26:35;10.00;99.90
2012;DHT22;1009;51.436;6.972;2024-01-30T05:29:02;9.90;99.90
2012;DHT22;1009;51.436;6.972;2024-01-30T05:31:30;9.90;99.90
2012;DHT22;1009;51.436;6.972;2024-01-30T05:33:57;9.90;99.90
2012;DHT22;1009;51.436;6.972;2024-01-30T05:36:24;9.80;99.90
2012;DHT22;1009;51.436;6.972;2024-01-30T05:38:50;9.70;99.90
2012;DHT22;1009;51.436;6.972;2024-01-30T05:41:17;9.70;99.90
2012;DHT22;1009;51.436;6.972;2024-01-30T05:43:44;9.70;99.90
2012;DHT22;1009;51.436;6.972;2024-01-30T05:46:11;9.70;99.90
2012;DHT22;1009;51.436;6.972;2024-01-30T05:48:39;9.70;99.90
2012;DHT22;1009;51.436;6.972;2024-01-30T05:51:07;9.70;99.90
2012;DHT22;1009;51.436;6.972;2024-01-30T05:53:34;9.70;99.90
2012;DHT22;1009;51.436;6.972;2024-01-30T05:56:01;9.70;99.90
2012;DHT22;1009;51.436;6.972;2024-01-30T05:58:28;9.60;99.90
2012;DHT22;1009;51.436;6.972;2024-01-30T06:00:56;9.60;99.90
2012;DHT22;1009;51.436;6.972;2024-01-30T06:03:23;9.60;99.90
2012;DHT22;1009;51.436;6.972;2024-01-30T06:05:51;9.60;99.90
2012;DHT22;1009;51.436;6.972;2024-01-30T06:08:18;9.60;99.90
2012;DHT22;1009;51.436;6.972;2024-01-30T06:10:45;9.60;99.90
2012;DHT22;1009;51.436;6.972;2024-01-30T06:13:13;9.60;99.90
2012;DHT22;1009;51.436;6.972;2024-01-30T06:15:39;9.60;99.90
2012;DHT22;1009;51.436;6.972;2024-01-30T06:18:06;9.60;99.90
2012;DHT22;1009;51.436;6.972;2024-01-30T06:20:34;9.70;99.90
2012;DHT22;1009;51.436;6.972;2024-01-30T06:23:02;9.70;99.90
2012;DHT22;1009;51.436;6.972;2024-01-30T06:25:29;9.70;99.90
2012;DHT22;1009;51.436;6.972;2024-01-30T06:27:55;9.70;99.90
2012;DHT22;1009;51.436;6.972;2024-01-30T06:30:22;9.60;99.90
2012;DHT22;1009;51.436;6.972;2024-01-30T06:32:49;9.60;99.90
2012;DHT22;1009;51.436;6.972;2024-01-30T06:35:16;9.60;99.90
2012;DHT22;1009;51.436;6.972;2024-01-30T06:37:43;9.60;99.90
2012;DHT22;1009;51.436;6.972;2024-01-30T06:40:12;9.70;99.90
2012;DHT22;1009;51.436;6.972;2024-01-30T06:42:38;9.80;99.90
2012;DHT22;1009;51.436;6.972;2024-01-30T06:45:06;9.70;99.90
2012;DHT22;1009;51.436;6.972;2024-01-30T06:47:38;9.80;99.90
2012;DHT22;1009;51.436;6.972;2024-01-30T06:50:06;9.80;99.90
2012;DHT22;1009;51.436;6.972;2024-01-30T06:52:33;9.80;99.90
2012;DHT22;1009;51.436;6.972;2024-01-30T06:55:00;9.80;99.90
2012;DHT22;1009;51.436;6.972;2024-01-30T06:57:28;9.80;99.90
2012;DHT22;1009;51.436;6.972;2024-01-30T06:59:56;9.80;99.90
2012;DHT22;1009;51.436;6.972;2024-01-30T07:02:22;9.80;99.90
2012;DHT22;1009;51.436;6.972;2024-01-30T07:04:50;9.90;99.90
2012;DHT22;1009;51.436;6.972;2024-01-30T07:07:16;9.90;99.90
2012;DHT22;1009;51.436;6.972;2024-01-30T07:09:43;9.90;99.90
2012;DHT22;1009;51.436;6.972;2024-01-30T07:12:10;9.90;99.90
2012;DHT22;1009;51.436;6.972;2024-01-30T07:14:38;9.90;99.90
2012;DHT22;1009;51.436;6.972;2024-01-30T07:17:05;9.90;99.90
2012;DHT22;1009;51.436;6.972;2024-01-30T07:19:32;9.90;99.90
2012;DHT22;1009;51.436;6.972;2024-01-30T07:22:00;10.00;99.90
2012;DHT22;1009;51.436;6.972;2024-01-30T07:24:27;10.00;99.90
2012;DHT22;1009;51.436;6.972;2024-01-30T07:26:53;10.00;99.90
2012;DHT22;1009;51.436;6.972;2024-01-30T07:29:20;10.00;99.90
2012;DHT22;1009;51.436;6.972;2024-01-30T07:31:49;10.00;99.90
2012;DHT22;1009;51.436;6.972;2024-01-30T07:34:15;10.00;99.90
2012;DHT22;1009;51.436;6.972;2024-01-30T07:36:42;10.00;99.90
2012;DHT22;1009;51.436;6.972;2024-01-30T07:39:09;10.00;99.90
2012;DHT22;1009;51.436;6.972;2024-01-30T07:41:36;10.00;99.90
2012;DHT22;1009;51.436;6.972;2024-01-30T07:44:03;10.00;99.90
2012;DHT22;1009;51.436;6.972;2024-01-30T07:46:30;10.00;99.90
2012;DHT22;1009;51.436;6.972;2024-01-30T07:48:58;10.00;99.90
2012;DHT22;1009;51.436;6.972;2024-01-30T07:51:25;10.10;99.90
2012;DHT22;1009;51.436;6.972;2024-01-30T07:53:53;10.00;99.90
2012;DHT22;1009;51.436;6.972;2024-01-30T07:56:20;10.10;99.90
2012;DHT22;1009;51.436;6.972;2024-01-30T07:58:47;10.10;99.90
2012;DHT22;1009;51.436;6.972;2024-01-30T08:01:14;10.10;99.90
2012;DHT22;1009;51.436;6.972;2024-01-30T08:03:41;10.10;99.90
2012;DHT22;1009;51.436;6.972;2024-01-30T08:06:09;10.10;99.90
2012;DHT22;1009;51.436;6.972;2024-01-30T08:08:36;10.20;99.90
2012;DHT22;1009;51.436;6.972;2024-01-30T08:11:03;10.20;99.90
2012;DHT22;1009;51.436;6.972;2024-01-30T08:13:30;10.20;99.90
2012;DHT22;1009;51.436;6.972;2024-01-30T08:15:57;10.30;99.90
2012;DHT22;1009;51.436;6.972;2024-01-30T08:18:24;10.30;99.90
2012;DHT22;1009;51.436;6.972;2024-01-30T08:20:53;10.30;99.90
2012;DHT22;1009;51.436;6.972;2024-01-30T08:23:21;10.30;99.90
2012;DHT22;1009;51.436;6.972;2024-01-30T08:25:48;10.40;99.90
2012;DHT22;1009;51.436;6.972;2024-01-30T08:28:15;10.40;99.90
2012;DHT22;1009;51.436;6.972;2024-01-30T08:30:42;10.40;99.90
2012;DHT22;1009;51.436;6.972;2024-01-30T08:33:08;10.40;99.90
2012;DHT22;1009;51.436;6.972;2024-01-30T08:35:35;10.40;99.90
2012;DHT22;1009;51.436;6.972;2024-01-30T08:38:02;10.40;99.90
2012;DHT22;1009;51.436;6.972;2024-01-30T08:40:30;10.50;99.90
2012;DHT22;1009;51.436;6.972;2024-01-30T08:42:57;10.50;99.90
2012;DHT22;1009;51.436;6.972;2024-01-30T08:45:24;10.60;99.90
2012;DHT22;1009;51.436;6.972;2024-01-30T08:47:50;10.60;99.90
2012;DHT22;1009;51.436;6.972;2024-01-30T08:50:17;10.60;99.90
2012;DHT22;1009;51.436;6.972;2024-01-30T08:52:44;10.60;99.90
2012;DHT22;1009;51.436;6.972;2024-01-30T08:55:11;10.70;99.90
2012;DHT22;1009;51.436;6.972;2024-01-30T08:57:39;10.80;99.90
2012;DHT22;1009;51.436;6.972;2024-01-30T09:00:06;10.80;99.90
2012;DHT22;1009;51.436;6.972;2024-01-30T09:02:35;10.80;99.90
2012;DHT22;1009;51.436;6.972;2024-01-30T09:05:01;10.80;99.90
2012;DHT22;1009;51.436;6.972;2024-01-30T09:07:28;10.80;99.90
2012;DHT22;1009;51.436;6.972;2024-01-30T09:09:55;10.90;99.90
2012;DHT22;1009;51.436;6.972;2024-01-30T09:12:22;10.80;99.90
2012;DHT22;1009;51.436;6.972;2024-01-30T09:14:50;10.90;99.90
2012;DHT22;1009;51.436;6.972;2024-01-30T09:17:16;10.90;99.90
2012;DHT22;1009;51.436;6.972;2024-01-30T09:19:43;10.90;99.90
2012;DHT22;1009;51.436;6.972;2024-01-30T09:22:10;10.80;99.90
2012;DHT22;1009;51.436;6.972;2024-01-30T09:24:37;10.90;99.90
2012;DHT22;1009;51.436;6.972;2024-01-30T09:27:04;10.90;99.90
2012;DHT22;1009;51.436;6.972;2024-01-30T09:29:31;11.00;99.90
2012;DHT22;1009;51.436;6.972;2024-01-30T09:32:01;11.00;99.90
2012;DHT22;1009;51.436;6.972;2024-01-30T09:34:27;11.10;99.90
2012;DHT22;1009;51.436;6.972;2024-01-30T09:36:54;11.20;99.90
2012;DHT22;1009;51.436;6.972;2024-01-30T09:39:21;11.30;99.90
2012;DHT22;1009;51.436;6.972;2024-01-30T09:41:49;11.30;99.90
2012;DHT22;1009;51.436;6.972;2024-01-30T09:44:20;11.40;99.90
2012;DHT22;1009;51.436;6.972;2024-01-30T09:46:47;11.30;99.90
2012;DHT22;1009;51.436;6.972;2024-01-30T09:49:16;11.40;99.90
2012;DHT22;1009;51.436;6.972;2024-01-30T09:51:44;11.40;99.90
2012;DHT22;1009;51.436;6.972;2024-01-30T09:54:13;11.50;99.90
2012;DHT22;1009;51.436;6.972;2024-01-30T09:56:40;11.70;99.90
2012;DHT22;1009;51.436;6.972;2024-01-30T09:59:07;11.80;99.90
2012;DHT22;1009;51.436;6.972;2024-01-30T10:01:35;11.80;99.90
2012;DHT22;1009;51.436;6.972;2024-01-30T10:04:03;11.80;99.90
2012;DHT22;1009;51.436;6.972;2024-01-30T10:06:32;11.90;99.90
2012;DHT22;1009;51.436;6.972;2024-01-30T10:08:58;11.90;99.90
2012;DHT22;1009;51.436;6.972;2024-01-30T10:11:25;12.10;99.90
2012;DHT22;1009;51.436;6.972;2024-01-30T10:13:52;12.20;99.90
2012;DHT22;1009;51.436;6.972;2024-01-30T10:16:19;12.30;99.90
2012;DHT22;1009;51.436;6.972;2024-01-30T10:18:45;12.40;99.90
2012;DHT22;1009;51.436;6.972;2024-01-30T10:21:13;12.40;99.90
2012;DHT22;1009;51.436;6.972;2024-01-30T10:23:43;12.40;99.90
2012;DHT22;1009;51.436;6.972;2024-01-30T10:26:09;12.30;99.90
2012;DHT22;1009;51.436;6.972;2024-01-30T10:28:36;12.20;99.90
2012;DHT22;1009;51.436;6.972;2024-01-30T10:31:03;12.20;99.90
2012;DHT22;1009;51.436;6.972;2024-01-30T10:33:30;12.10;99.90
2012;DHT22;1009;51.436;6.972;2024-01-30T10:36:01;12.10;99.90
2012;DHT22;1009;51.436;6.972;2024-01-30T10:38:29;12.10;99.90
2012;DHT22;1009;51.436;6.972;2024-01-30T10:40:58;12.10;99.90
2012;DHT22;1009;51.436;6.972;2024-01-30T10:43:30;12.20;99.90
2012;DHT22;1009;51.436;6.972;2024-01-30T10:46:04;12.20;99.90
2012;DHT22;1009;51.436;6.972;2024-01-30T10:48:36;12.30;99.90
2012;DHT22;1009;51.436;6.972;2024-01-30T10:51:09;12.30;99.90
2012;DHT22;1009;51.436;6.972;2024-01-30T10:53:38;12.30;99.90
2012;DHT22;1009;51.436;6.972;2024-01-30T10:56:08;12.30;99.90
2012;DHT22;1009;51.436;6.972;2024-01-30T10:58:36;12.30;99.90
2012;DHT22;1009;51.436;6.972;2024-01-30T11:01:04;12.40;99.90
2012;DHT22;1009;51.436;6.972;2024-01-30T11:03:32;12.40;99.90
2012;DHT22;1009;51.436;6.972;2024-01-30T11:06:02;12.50;99.90
2012;DHT22;1009;51.436;6.972;2024-01-30T11:08:31;12.50;99.90
2012;DHT22;1009;51.436;6.972;2024-01-30T11:10:58;12.50;99.90
2012;DHT22;1009;51.436;6.972;2024-01-30T11:13:29;12.60;99.90
2012;DHT22;1009;51.436;6.972;2024-01-30T11:15:59;12.50;99.90
2012;DHT22;1009;51.436;6.972;2024-01-30T11:18:29;12.50;99.90
2012;DHT22;1009;51.436;6.972;2024-01-30T11:20:57;12.50;99.90
2012;DHT22;1009;51.436;6.972;2024-01-30T11:23:25;12.60;99.90
2012;DHT22;1009;51.436;6.972;2024-01-30T11:25:53;12.60;99.90
2012;DHT22;1009;51.436;6.972;2024-01-30T11:28:21;12.60;99.90
2012;DHT22;1009;51.436;6.972;2024-01-30T11:30:50;12.60;99.90
2012;DHT22;1009;51.436;6.972;2024-01-30T11:33:27;12.60;99.90
2012;DHT22;1009;51.436;6.972;2024-01-30T11:35:57;12.60;99.90
2012;DHT22;1009;51.436;6.972;2024-01-30T11:38:25;12.60;99.90
2012;DHT22;1009;51.436;6.972;2024-01-30T11:40:53;12.60;99.90
2012;DHT22;1009;51.436;6.972;2024-01-30T11:43:20;12.60;99.90
2012;DHT22;1009;51.436;6.972;2024-01-30T11:45:47;12.50;99.90
2012;DHT22;1009;51.436;6.972;2024-01-30T11:48:15;12.50;99.90
2012;DHT22;1009;51.436;6.972;2024-01-30T11:50:43;12.50;99.90
2012;DHT22;1009;51.436;6.972;2024-01-30T11:53:10;12.50;99.90
2012;DHT22;1009;51.436;6.972;2024-01-30T11:55:36;12.50;99.90
2012;DHT22;1009;51.436;6.972;2024-01-30T11:58:04;12.50;99.90
2012;DHT22;1009;51.436;6.972;2024-01-30T12:00:31;12.50;99.90
2012;DHT22;1009;51.436;6.972;2024-01-30T12:02:59;12.40;99.90
2012;DHT22;1009;51.436;6.972;2024-01-30T12:05:28;12.40;99.90
2012;DHT22;1009;51.436;6.972;2024-01-30T12:07:55;12.40;99.90
2012;DHT22;1009;51.436;6.972;2024-01-30T12:10:24;12.30;99.90
2012;DHT22;1009;51.436;6.972;2024-01-30T12:12:52;12.20;99.90
2012;DHT22;1009;51.436;6.972;2024-01-30T12:15:19;12.20;99.90
2012;DHT22;1009;51.436;6.972;2024-01-30T12:17:48;12.20;99.90
2012;DHT22;1009;51.436;6.972;2024-01-30T12:20:17;12.20;99.90
2012;DHT22;1009;51.436;6.972;2024-01-30T12:22:47;12.40;99.90
2012;DHT22;1009;51.436;6.972;2024-01-30T12:25:15;12.30;99.90
2012;DHT22;1009;51.436;6.972;2024-01-30T12:27:43;12.30;99.90
2012;DHT22;1009;51.436;6.972;2024-01-30T12:30:11;12.30;99.90
2012;DHT22;1009;51.436;6.972;2024-01-30T12:32:40;12.30;99.90
2012;DHT22;1009;51.436;6.972;2024-01-30T12:35:08;12.40;99.90
2012;DHT22;1009;51.436;6.972;2024-01-30T12:37:36;12.40;99.90
2012;DHT22;1009;51.436;6.972;2024-01-30T12:40:05;12.30;99.90
2012;DHT22;1009;51.436;6.972;2024-01-30T12:42:32;12.30;99.90
2012;DHT22;1009;51.436;6.972;2024-01-30T12:44:59;12.20;99.90
2012;DHT22;1009;51.436;6.972;2024-01-30T12:47:26;12.20;99.90
2012;DHT22;1009;51.436;6.972;2024-01-30T12:49:52;12.30;99.90
2012;DHT22;1009;51.436;6.972;2024-01-30T12:52:20;12.30;99.90
2012;DHT22;1009;51.436;6.972;2024-01-30T12:54:47;12.20;99.90
2012;DHT22;1009;51.436;6.972;2024-01-30T12:57:15;12.20;99.90
2012;DHT22;1009;51.436;6.972;2024-01-30T12:59:43;12.30;99.90
2012;DHT22;1009;51.436;6.972;2024-01-30T13:02:10;12.30;99.90
2012;DHT22;1009;51.436;6.972;2024-01-30T13:04:37;12.20;99.90
2012;DHT22;1009;51.436;6.972;2024-01-30T13:07:03;12.30;99.90
2012;DHT22;1009;51.436;6.972;2024-01-30T13:09:30;12.30;99.90
2012;DHT22;1009;51.436;6.972;2024-01-30T13:11:57;12.20;99.90
2012;DHT22;1009;51.436;6.972;2024-01-30T13:14:26;12.20;99.90
2012;DHT22;1009;51.436;6.972;2024-01-30T13:16:53;12.10;99.90
2012;DHT22;1009;51.436;6.972;2024-01-30T13:19:20;12.10;99.90
2012;DHT22;1009;51.436;6.972;2024-01-30T13:21:46;12.10;99.90
2012;DHT22;1009;51.436;6.972;2024-01-30T13:24:14;12.10;99.90
2012;DHT22;1009;51.436;6.972;2024-01-30T13:26:42;12.10;99.90
2012;DHT22;1009;51.436;6.972;2024-01-30T13:29:09;12.10;99.90
2012;DHT22;1009;51.436;6.972;2024-01-30T13:31:37;12.10;99.90
2012;DHT22;1009;51.436;6.972;2024-01-30T13:34:04;12.00;99.90
2012;DHT22;1009;51.436;6.972;2024-01-30T13:36:32;12.10;99.90
2012;DHT22;1009;51.436;6.972;2024-01-30T13:38:59;12.10;99.90
2012;DHT22;1009;51.436;6.972;2024-01-30T13:41:26;12.10;99.90
2012;DHT22;1009;51.436;6.972;2024-01-30T13:43:52;12.10;99.90
2012;DHT22;1009;51.436;6.972;2024-01-30T13:46:19;12.10;99.90
2012;DHT22;1009;51.436;6.972;2024-01-30T13:48:47;12.10;99.90
2012;DHT22;1009;51.436;6.972;2024-01-30T13:51:14;12.10;99.90
2012;DHT22;1009;51.436;6.972;2024-01-30T13:53:42;12.20;99.90
2012;DHT22;1009;51.436;6.972;2024-01-30T13:56:09;12.10;99.90
2012;DHT22;1009;51.436;6.972;2024-01-30T13:58:36;12.10;99.90
2012;DHT22;1009;51.436;6.972;2024-01-30T14:01:03;12.10;99.90
2012;DHT22;1009;51.436;6.972;2024-01-30T14:03:30;12.10;99.90
2012;DHT22;1009;51.436;6.972;2024-01-30T14:05:59;12.10;99.90
2012;DHT22;1009;51.436;6.972;2024-01-30T14:08:25;12.10;99.90
2012;DHT22;1009;51.436;6.972;2024-01-30T14:10:53;12.10;99.90
2012;DHT22;1009;51.436;6.972;2024-01-30T14:13:20;12.20;99.90
2012;DHT22;1009;51.436;6.972;2024-01-30T14:15:48;12.20;99.90
2012;DHT22;1009;51.436;6.972;2024-01-30T14:18:14;12.30;99.90
2012;DHT22;1009;51.436;6.972;2024-01-30T14:20:41;12.30;99.90
2012;DHT22;1009;51.436;6.972;2024-01-30T14:23:09;12.40;99.90
2012;DHT22;1009;51.436;6.972;2024-01-30T14:25:36;12.50;99.90
2012;DHT22;1009;51.436;6.972;2024-01-30T14:28:03;12.50;99.90
2012;DHT22;1009;51.436;6.972;2024-01-30T14:30:30;12.50;99.90
2012;DHT22;1009;51.436;6.972;2024-01-30T14:32:57;12.50;99.90
2012;DHT22;1009;51.436;6.972;2024-01-30T14:35:23;12.40;99.90
2012;DHT22;1009;51.436;6.972;2024-01-30T14:37:50;12.40;99.90
2012;DHT22;1009;51.436;6.972;2024-01-30T14:40:19;12.20;99.90
2012;DHT22;1009;51.436;6.972;2024-01-30T14:42:46;12.20;99.90
2012;DHT22;1009;51.436;6.972;2024-01-30T14:45:17;12.20;99.90
2012;DHT22;1009;51.436;6.972;2024-01-30T14:47:43;12.10;99.90
2012;DHT22;1009;51.436;6.972;2024-01-30T14:50:10;12.20;99.90
2012;DHT22;1009;51.436;6.972;2024-01-30T14:52:37;12.10;99.90
2012;DHT22;1009;51.436;6.972;2024-01-30T14:55:06;12.10;99.90
2012;DHT22;1009;51.436;6.972;2024-01-30T14:57:34;12.10;99.90
2012;DHT22;1009;51.436;6.972;2024-01-30T15:00:04;12.10;99.90
2012;DHT22;1009;51.436;6.972;2024-01-30T15:02:31;12.10;99.90
2012;DHT22;1009;51.436;6.972;2024-01-30T15:04:56;12.10;99.90
2012;DHT22;1009;51.436;6.972;2024-01-30T15:07:23;12.10;99.90
2012;DHT22;1009;51.436;6.972;2024-01-30T15:09:50;12.10;99.90
2012;DHT22;1009;51.436;6.972;2024-01-30T15:12:17;12.00;99.90
2012;DHT22;1009;51.436;6.972;2024-01-30T15:14:45;12.00;99.90
2012;DHT22;1009;51.436;6.972;2024-01-30T15:17:16;12.00;99.90
2012;DHT22;1009;51.436;6.972;2024-01-30T15:19:43;12.00;99.90
2012;DHT22;1009;51.436;6.972;2024-01-30T15:22:09;11.90;99.90
2012;DHT22;1009;51.436;6.972;2024-01-30T15:24:36;11.90;99.90
2012;DHT22;1009;51.436;6.972;2024-01-30T15:27:04;11.90;99.90
2012;DHT22;1009;51.436;6.972;2024-01-30T15:29:31;11.80;99.90
2012;DHT22;1009;51.436;6.972;2024-01-30T15:31:59;11.80;99.90
2012;DHT22;1009;51.436;6.972;2024-01-30T15:34:26;11.80;99.90
2012;DHT22;1009;51.436;6.972;2024-01-30T15:36:52;11.60;99.90
2012;DHT22;1009;51.436;6.972;2024-01-30T15:39:19;11.70;99.90
2012;DHT22;1009;51.436;6.972;2024-01-30T15:41:46;11.70;99.90
2012;DHT22;1009;51.436;6.972;2024-01-30T15:44:13;11.70;99.90
2012;DHT22;1009;51.436;6.972;2024-01-30T15:46:39;11.50;99.90
2012;DHT22;1009;51.436;6.972;2024-01-30T15:49:07;11.40;99.90
2012;DHT22;1009;51.436;6.972;2024-01-30T15:51:34;11.30;99.90
2012;DHT22;1009;51.436;6.972;2024-01-30T15:54:01;11.20;99.90
2012;DHT22;1009;51.436;6.972;2024-01-30T15:56:28;11.20;99.90
2012;DHT22;1009;51.436;6.972;2024-01-30T15:58:55;11.20;99.90
2012;DHT22;1009;51.436;6.972;2024-01-30T16:01:22;11.20;99.90
2012;DHT22;1009;51.436;6.972;2024-01-30T16:03:49;11.10;99.90